createdAt,value
2024-04-15T00:00:07.559Z,100656.56
2024-04-15T00:02:54.093Z,100652.34
2024-04-15T00:05:21.825Z,100654.94
2024-04-15T00:07:52.256Z,100655.94
2024-04-15T00:10:19.104Z,100654.28
2024-04-15T00:12:46.224Z,100658.72
2024-04-15T00:15:13.611Z,100655.06
2024-04-15T00:17:40.780Z,100658.53
2024-04-15T00:20:08.247Z,100658.53
2024-04-15T00:22:36.828Z,100668.66
2024-04-15T00:25:04.485Z,100645.44
2024-04-15T00:27:31.340Z,100634.13
2024-04-15T00:29:58.796Z,100624.88
2024-04-15T00:32:25.829Z,100612.16
2024-04-15T00:34:52.893Z,100602.19
2024-04-15T00:37:20.031Z,100594.47
2024-04-15T00:39:47.027Z,100610.47
2024-04-15T00:42:13.971Z,100600.00
2024-04-15T00:44:40.896Z,100604.53
2024-04-15T00:47:09.647Z,100595.75
2024-04-15T00:49:38.825Z,100604.63
2024-04-15T00:52:07.505Z,100588.59
2024-04-15T00:54:38.803Z,100578.66
2024-04-15T00:57:05.940Z,100575.84
2024-04-15T00:59:36.419Z,100576.56
2024-04-15T01:02:03.995Z,100575.03
2024-04-15T01:04:30.933Z,100567.06
2024-04-15T01:06:58.498Z,100549.47
2024-04-15T01:09:26.748Z,100557.44
2024-04-15T01:11:53.623Z,100542.78
2024-04-15T01:14:21.209Z,100562.66
2024-04-15T01:16:49.735Z,100551.16
2024-04-15T01:19:17.041Z,100547.97
2024-04-15T01:21:43.869Z,100549.41
2024-04-15T01:24:11.282Z,100544.84
2024-04-15T01:26:38.213Z,100548.13
2024-04-15T01:29:05.815Z,100544.88
2024-04-15T01:31:40.610Z,100540.34
2024-04-15T01:34:08.334Z,100544.41
2024-04-15T01:36:35.024Z,100550.97
2024-04-15T01:39:02.393Z,100555.50
2024-04-15T01:41:29.517Z,100543.09
2024-04-15T01:43:56.285Z,100530.78
2024-04-15T01:46:23.036Z,100533.97
2024-04-15T01:48:50.333Z,100532.22
2024-04-15T01:51:17.432Z,100526.28
2024-04-15T01:53:44.405Z,100528.50
2024-04-15T01:56:11.349Z,100531.03
2024-04-15T01:58:38.255Z,100534.91
2024-04-15T02:01:06.063Z,100530.41
2024-04-15T02:03:33.599Z,100526.72
2024-04-15T02:06:01.177Z,100520.38
2024-04-15T02:08:29.012Z,100523.66
2024-04-15T02:10:56.482Z,100513.03
2024-04-15T02:13:23.668Z,100513.44
2024-04-15T02:15:50.835Z,100499.91
2024-04-15T02:18:17.987Z,100497.22
2024-04-15T02:20:45.679Z,100495.81
2024-04-15T02:23:12.867Z,100492.09
2024-04-15T02:25:40.126Z,100491.97
2024-04-15T02:28:07.198Z,100488.00
2024-04-15T02:30:34.465Z,100495.25
2024-04-15T02:33:02.118Z,100488.03
2024-04-15T02:35:29.176Z,100487.13
2024-04-15T02:37:56.055Z,100491.81
2024-04-15T02:40:24.008Z,100483.41
2024-04-15T02:42:51.901Z,100474.59
2024-04-15T02:45:19.029Z,100470.94
2024-04-15T02:47:46.380Z,100461.31
2024-04-15T02:50:13.800Z,100465.56
2024-04-15T02:52:42.456Z,100455.97
2024-04-15T02:55:09.530Z,100456.78
2024-04-15T02:57:37.805Z,100457.09
2024-04-15T03:00:06.434Z,100465.72
2024-04-15T03:02:34.947Z,100466.53
2024-04-15T03:05:04.122Z,100472.88
2024-04-15T03:07:31.456Z,100468.97
2024-04-15T03:09:58.981Z,100476.03
2024-04-15T03:12:25.914Z,100465.16
2024-04-15T03:14:54.614Z,100469.53
2024-04-15T03:17:21.751Z,100460.97
2024-04-15T03:19:53.493Z,100459.31
2024-04-15T03:22:22.410Z,100457.78
2024-04-15T03:24:50.385Z,100454.16
2024-04-15T03:27:18.262Z,100457.38
2024-04-15T03:29:45.939Z,100449.44
2024-04-15T03:32:13.134Z,100435.91
2024-04-15T03:34:40.307Z,100441.34
2024-04-15T03:37:07.138Z,100441.06
2024-04-15T03:39:34.326Z,100438.13
2024-04-15T03:42:01.583Z,100437.63
2024-04-15T03:44:29.246Z,100437.06
2024-04-15T03:46:56.276Z,100452.19
2024-04-15T03:49:23.336Z,100449.41
2024-04-15T03:51:50.065Z,100445.56
2024-04-15T03:54:17.010Z,100442.03
2024-04-15T03:56:44.163Z,100448.50
2024-04-15T03:59:13.354Z,100448.50
2024-04-15T04:01:41.003Z,100447.97
2024-04-15T04:04:10.109Z,100434.88
2024-04-15T04:06:38.507Z,100433.88
2024-04-15T04:09:06.158Z,100435.69
2024-04-15T04:11:34.004Z,100433.72
2024-04-15T04:14:00.887Z,100435.38
2024-04-15T04:16:29.265Z,100430.00
2024-04-15T04:18:56.099Z,100428.19
2024-04-15T04:21:23.131Z,100431.59
2024-04-15T04:23:50.125Z,100433.16
2024-04-15T04:26:17.870Z,100434.19
2024-04-15T04:28:46.539Z,100428.31
2024-04-15T04:31:13.793Z,100423.97
2024-04-15T04:33:40.564Z,100427.16
2024-04-15T04:36:08.028Z,100428.91
2024-04-15T04:38:35.636Z,100435.06
2024-04-15T04:41:03.394Z,100428.53
2024-04-15T04:43:30.351Z,100418.97
2024-04-15T04:45:57.539Z,100420.84
2024-04-15T04:48:24.841Z,100415.28
2024-04-15T04:50:51.955Z,100420.56
2024-04-15T04:53:19.202Z,100416.41
2024-04-15T04:55:46.257Z,100420.38
2024-04-15T04:58:14.474Z,100427.88
2024-04-15T05:00:42.539Z,100425.09
2024-04-15T05:03:10.207Z,100429.06
2024-04-15T05:05:37.227Z,100427.53
2024-04-15T05:08:05.794Z,100431.94
2024-04-15T05:10:33.257Z,100428.06
2024-04-15T05:13:00.552Z,100419.44
2024-04-15T05:15:27.772Z,100420.66
2024-04-15T05:17:54.915Z,100417.50
2024-04-15T05:20:22.143Z,100408.78
2024-04-15T05:22:50.143Z,100405.59
2024-04-15T05:25:17.352Z,100410.63
2024-04-15T05:27:46.248Z,100416.31
2024-04-15T05:30:13.294Z,100411.16
2024-04-15T05:32:40.542Z,100416.03
2024-04-15T05:35:07.932Z,100392.06
2024-04-15T05:37:35.354Z,100387.75
2024-04-15T05:40:02.275Z,100394.56
2024-04-15T05:42:30.952Z,100382.25
2024-04-15T05:44:57.970Z,100384.03
2024-04-15T05:47:25.952Z,100385.44
2024-04-15T05:49:52.997Z,100377.13
2024-04-15T05:52:19.876Z,100388.94
2024-04-15T05:54:46.989Z,100379.78
2024-04-15T05:57:14.652Z,100374.72
2024-04-15T05:59:42.287Z,100376.69
2024-04-15T06:02:09.234Z,100373.53
2024-04-15T06:04:36.954Z,100375.00
2024-04-15T06:07:04.235Z,100365.13
2024-04-15T06:09:32.058Z,100347.56
2024-04-15T06:11:59.240Z,100355.47
2024-04-15T06:14:26.343Z,100357.19
2024-04-15T06:16:53.993Z,100355.88
2024-04-15T06:19:21.947Z,100354.88
2024-04-15T06:21:49.011Z,100353.53
2024-04-15T06:24:15.782Z,100348.59
2024-04-15T06:26:42.830Z,100347.34
2024-04-15T06:29:10.365Z,100338.09
2024-04-15T06:31:37.387Z,100321.63
2024-04-15T06:34:04.303Z,100318.28
2024-04-15T06:36:31.556Z,100314.50
2024-04-15T06:38:59.714Z,100307.19
2024-04-15T06:41:26.987Z,100296.38
2024-04-15T06:43:53.860Z,100286.75
2024-04-15T06:46:20.638Z,100291.38
2024-04-15T06:48:47.705Z,100287.16
2024-04-15T06:51:14.650Z,100278.59
2024-04-15T06:53:42.244Z,100281.47
2024-04-15T06:56:10.293Z,100295.69
2024-04-15T06:58:37.577Z,100293.41
2024-04-15T07:01:04.548Z,100285.19
2024-04-15T07:03:32.071Z,100285.53
2024-04-15T07:05:59.022Z,100277.81
2024-04-15T07:08:26.247Z,100300.97
2024-04-15T07:10:53.278Z,100294.03
2024-04-15T07:13:21.251Z,100286.13
2024-04-15T07:15:50.010Z,100281.34
2024-04-15T07:18:17.655Z,100279.88
2024-04-15T07:20:46.241Z,100269.13
2024-04-15T07:23:13.761Z,100266.84
2024-04-15T07:25:40.703Z,100267.19
2024-04-15T07:28:07.978Z,100260.16
2024-04-15T07:30:35.287Z,100267.00
2024-04-15T07:33:02.602Z,100262.31
2024-04-15T07:35:31.849Z,100265.13
2024-04-15T07:37:59.345Z,100263.50
2024-04-15T07:40:29.940Z,100255.78
2024-04-15T07:43:16.540Z,100261.72
2024-04-15T07:45:45.367Z,100254.88
2024-04-15T07:48:14.535Z,100246.47
2024-04-15T07:50:42.108Z,100259.50
2024-04-15T07:53:08.953Z,100249.97
2024-04-15T07:55:35.935Z,100240.09
2024-04-15T07:58:03.338Z,100237.19
2024-04-15T08:00:30.174Z,100234.66
2024-04-15T08:02:57.406Z,100228.44
2024-04-15T08:05:24.318Z,100221.47
2024-04-15T08:07:53.922Z,100213.84
2024-04-15T08:10:21.460Z,100217.31
2024-04-15T08:12:48.806Z,100211.53
2024-04-15T08:15:15.858Z,100197.66
2024-04-15T08:17:44.267Z,100199.41
2024-04-15T08:20:11.298Z,100195.44
2024-04-15T08:22:39.453Z,100190.66
2024-04-15T08:25:10.087Z,100185.84
2024-04-15T08:27:41.109Z,100183.66
2024-04-15T08:30:09.182Z,100191.81
2024-04-15T08:32:40.429Z,100187.63
2024-04-15T08:35:07.781Z,100174.44
2024-04-15T08:37:37.819Z,100183.69
2024-04-15T08:40:06.347Z,100176.81
2024-04-15T08:42:53.425Z,100166.34
2024-04-15T08:45:22.520Z,100156.44
2024-04-15T08:47:51.931Z,100137.28
2024-04-15T08:50:21.366Z,100138.50
2024-04-15T08:52:54.224Z,100135.69
2024-04-15T08:55:24.867Z,100132.09
2024-04-15T08:57:53.573Z,100125.66
2024-04-15T09:00:22.702Z,100117.13
2024-04-15T09:02:53.307Z,100104.53
2024-04-15T09:05:21.300Z,100098.41
2024-04-15T09:07:50.675Z,100094.31
2024-04-15T09:10:17.868Z,100097.94
2024-04-15T09:12:44.891Z,100091.06
2024-04-15T09:15:14.219Z,100084.34
2024-04-15T09:17:42.561Z,100086.50
2024-04-15T09:20:10.389Z,100087.59
2024-04-15T09:22:38.702Z,100066.22
2024-04-15T09:25:07.385Z,100072.69
2024-04-15T09:27:37.448Z,100071.56
2024-04-15T09:30:05.817Z,100066.59
2024-04-15T09:32:34.376Z,100051.97
2024-04-15T09:35:04.184Z,100048.81
2024-04-15T09:37:33.130Z,100037.59
2024-04-15T09:40:06.450Z,100036.34
2024-04-15T09:42:35.832Z,100021.34
2024-04-15T09:45:06.573Z,100012.56
2024-04-15T09:47:35.468Z,100005.38
2024-04-15T09:50:02.949Z,100003.84
2024-04-15T09:52:32.114Z,99994.16
2024-04-15T09:55:09.988Z,99990.00
2024-04-15T09:57:45.247Z,99973.06
2024-04-15T10:00:17.551Z,99960.56
2024-04-15T10:02:54.091Z,99970.56
2024-04-15T10:05:23.024Z,99966.34
2024-04-15T10:07:53.159Z,99951.28
2024-04-15T10:10:21.310Z,99953.22
2024-04-15T10:12:53.574Z,99942.56
2024-04-15T10:15:22.365Z,99929.72
2024-04-15T10:17:57.215Z,99909.50
2024-04-15T10:20:36.353Z,99922.72
2024-04-15T10:23:08.821Z,99910.75
2024-04-15T10:25:36.404Z,99904.53
2024-04-15T10:28:06.497Z,99908.66
2024-04-15T10:30:34.500Z,99891.44
2024-04-15T10:33:22.105Z,99886.47
2024-04-15T10:35:52.695Z,99878.59
2024-04-15T10:38:19.787Z,99868.50
2024-04-15T10:40:50.604Z,99861.72
2024-04-15T10:43:19.842Z,99860.59
2024-04-15T10:45:47.405Z,99856.97
2024-04-15T10:48:14.919Z,99851.34
2024-04-15T10:50:42.424Z,99829.81
2024-04-15T10:53:11.489Z,99823.59
2024-04-15T10:55:38.991Z,99815.31
2024-04-15T10:58:13.139Z,99792.19
2024-04-15T11:00:43.789Z,99801.56
2024-04-15T11:03:11.625Z,99792.88
2024-04-15T11:05:38.859Z,99796.03
2024-04-15T11:08:06.611Z,99778.44
2024-04-15T11:10:34.206Z,99768.47
2024-04-15T11:13:01.728Z,99777.25
2024-04-15T11:15:29.842Z,99747.75
2024-04-15T11:17:57.022Z,99756.31
2024-04-15T11:20:25.121Z,99743.81
2024-04-15T11:22:52.401Z,99753.97
2024-04-15T11:25:20.349Z,99743.63
2024-04-15T11:27:54.203Z,99732.00
2024-04-15T11:30:24.607Z,99722.44
2024-04-15T11:32:52.952Z,99708.97
2024-04-15T11:35:21.750Z,99719.88
2024-04-15T11:37:59.518Z,99716.97
2024-04-15T11:40:27.581Z,99709.09
2024-04-15T11:42:56.244Z,99700.31
2024-04-15T11:45:22.998Z,99710.75
2024-04-15T11:47:55.376Z,99703.44
2024-04-15T11:50:22.686Z,99704.22
2024-04-15T11:52:50.027Z,99678.31
2024-04-15T11:55:17.451Z,99681.66
2024-04-15T11:57:45.781Z,99666.00
2024-04-15T12:00:13.372Z,99657.75
2024-04-15T12:02:41.957Z,99654.06
2024-04-15T12:05:12.226Z,99662.34
2024-04-15T12:07:43.213Z,99653.63
2024-04-15T12:10:11.876Z,99645.22
2024-04-15T12:12:39.897Z,99643.81
2024-04-15T12:15:09.072Z,99637.59
2024-04-15T12:17:38.031Z,99627.38
2024-04-15T12:20:06.410Z,99619.31
2024-04-15T12:22:35.178Z,99615.59
2024-04-15T12:25:07.904Z,99592.66
2024-04-15T12:27:39.174Z,99595.47
2024-04-15T12:30:10.309Z,99594.59
2024-04-15T12:32:41.115Z,99587.81
2024-04-15T12:35:08.350Z,99586.69
2024-04-15T12:37:35.847Z,99584.31
2024-04-15T12:40:07.085Z,99587.69
2024-04-15T12:42:35.431Z,99573.19
2024-04-15T12:45:04.036Z,99580.53
2024-04-15T12:47:32.043Z,99579.31
2024-04-15T12:49:59.128Z,99580.63
2024-04-15T12:52:26.147Z,99549.41
2024-04-15T12:54:54.283Z,99553.75
2024-04-15T12:57:22.740Z,99555.97
2024-04-15T12:59:50.505Z,99531.34
2024-04-15T13:02:17.791Z,99561.56
2024-04-15T13:04:45.192Z,99543.31
2024-04-15T13:07:12.964Z,99551.34
2024-04-15T13:09:40.170Z,99540.69
2024-04-15T13:12:11.243Z,99530.22
2024-04-15T13:14:39.492Z,99510.34
2024-04-15T13:17:06.624Z,99501.91
2024-04-15T13:19:34.379Z,99508.50
2024-04-15T13:22:02.435Z,99510.81
2024-04-15T13:24:30.987Z,99475.97
2024-04-15T13:26:57.748Z,99471.56
2024-04-15T13:29:24.611Z,99451.97
2024-04-15T13:32:01.247Z,99438.56
2024-04-15T13:34:35.886Z,99413.50
2024-04-15T13:37:03.292Z,99401.00
2024-04-15T13:39:30.661Z,99391.59
2024-04-15T13:41:57.523Z,99378.28
2024-04-15T13:44:24.422Z,99380.31
2024-04-15T13:46:51.896Z,99371.91
2024-04-15T13:49:20.830Z,99357.88
2024-04-15T13:51:47.627Z,99343.63
2024-04-15T13:54:14.379Z,99341.50
2024-04-15T13:56:41.358Z,99327.91
2024-04-15T13:59:08.806Z,99343.50
2024-04-15T14:01:35.617Z,99350.34
2024-04-15T14:04:02.975Z,99358.69
2024-04-15T14:06:30.001Z,99357.94
2024-04-15T14:08:57.271Z,99365.03
2024-04-15T14:11:24.636Z,99363.28
2024-04-15T14:13:51.920Z,99375.41
2024-04-15T14:16:18.860Z,99391.22
2024-04-15T14:18:48.057Z,99372.31
2024-04-15T14:21:14.910Z,99376.13
2024-04-15T14:23:42.226Z,99386.13
2024-04-15T14:26:09.643Z,99374.56
2024-04-15T14:28:36.420Z,99366.44
2024-04-15T14:31:03.368Z,99341.38
2024-04-15T14:33:30.288Z,99325.56
2024-04-15T14:35:57.407Z,99307.34
2024-04-15T14:38:24.742Z,99305.75
2024-04-15T14:40:51.941Z,99292.59
2024-04-15T14:43:19.486Z,99290.16
2024-04-15T14:45:46.487Z,99285.53
2024-04-15T14:48:13.647Z,99276.31
2024-04-15T14:50:40.393Z,99280.88
2024-04-15T14:53:07.481Z,99257.88
2024-04-15T14:55:35.067Z,99251.03
2024-04-15T14:58:01.990Z,99247.34
2024-04-15T15:00:29.655Z,99251.28
2024-04-15T15:02:57.433Z,99236.44
2024-04-15T15:05:24.770Z,99222.13
2024-04-15T15:07:52.041Z,99225.41
2024-04-15T15:10:19.121Z,99226.63
2024-04-15T15:12:46.124Z,99244.97
2024-04-15T15:15:13.343Z,99276.09
2024-04-15T15:17:40.551Z,99280.06
2024-04-15T15:20:08.373Z,99283.56
2024-04-15T15:22:35.331Z,99276.81
2024-04-15T15:25:02.939Z,99271.22
2024-04-15T15:27:30.716Z,99310.97
2024-04-15T15:29:57.431Z,99374.50
2024-04-15T15:32:24.087Z,99533.13
2024-04-15T15:34:50.893Z,99600.75
2024-04-15T15:37:17.946Z,99635.03
2024-04-15T15:39:44.828Z,99623.44
2024-04-15T15:42:12.075Z,99615.44
2024-04-15T15:44:38.790Z,99614.84
2024-04-15T15:47:05.894Z,99601.28
2024-04-15T15:49:33.139Z,99598.56
2024-04-15T15:52:03.763Z,99602.94
2024-04-15T15:54:31.471Z,99633.72
2024-04-15T15:56:59.151Z,99648.94
2024-04-15T15:59:26.389Z,99672.34
2024-04-15T16:01:53.272Z,99667.50
2024-04-15T16:04:21.320Z,99670.72
2024-04-15T16:06:49.285Z,99679.03
2024-04-15T16:09:16.460Z,99674.16
2024-04-15T16:11:46.975Z,99678.97
2024-04-15T16:14:15.467Z,99644.88
2024-04-15T16:16:42.416Z,99606.34
2024-04-15T16:19:10.551Z,99561.00
2024-04-15T16:21:40.161Z,99542.72
2024-04-15T16:24:07.692Z,99523.59
2024-04-15T16:26:35.434Z,99547.53
2024-04-15T16:29:07.599Z,99595.44
2024-04-15T16:31:35.456Z,99616.25
2024-04-15T16:34:03.612Z,99607.56
2024-04-15T16:36:32.319Z,99594.63
2024-04-15T16:38:59.570Z,99566.03
2024-04-15T16:41:26.843Z,99584.25
2024-04-15T16:43:54.439Z,99574.03
2024-04-15T16:46:29.189Z,99562.94
2024-04-15T16:48:56.719Z,99552.38
2024-04-15T16:51:25.116Z,99564.38
2024-04-15T16:53:53.108Z,99550.72
2024-04-15T16:56:20.497Z,99551.34
2024-04-15T16:58:48.122Z,99554.25
2024-04-15T17:01:15.631Z,99556.56
2024-04-15T17:03:43.569Z,99547.41
2024-04-15T17:06:11.570Z,99560.41
2024-04-15T17:08:38.497Z,99561.22
2024-04-15T17:11:05.743Z,99555.09
2024-04-15T17:13:33.256Z,99561.50
2024-04-15T17:16:01.020Z,99556.81
2024-04-15T17:18:29.902Z,99556.63
2024-04-15T17:20:57.353Z,99558.75
2024-04-15T17:23:36.731Z,99573.81
2024-04-15T17:26:07.035Z,99595.16
2024-04-15T17:28:41.189Z,99583.94
2024-04-15T17:31:09.942Z,99587.06
2024-04-15T17:33:40.113Z,99589.53
2024-04-15T17:36:08.568Z,99618.16
2024-04-15T17:38:35.775Z,99623.13
2024-04-15T17:41:03.582Z,99631.16
2024-04-15T17:43:30.775Z,99646.50
2024-04-15T17:45:59.911Z,99636.34
2024-04-15T17:48:27.646Z,99646.91
2024-04-15T17:50:55.720Z,99676.56
2024-04-15T17:53:24.280Z,99673.88
2024-04-15T17:55:51.924Z,99637.66
2024-04-15T17:58:18.705Z,99636.63
2024-04-15T18:00:46.584Z,99644.09
2024-04-15T18:03:15.315Z,99639.38
2024-04-15T18:05:43.839Z,99631.94
2024-04-15T18:08:10.625Z,99636.53
2024-04-15T18:10:37.595Z,99629.88
2024-04-15T18:13:04.616Z,99639.25
2024-04-15T18:15:31.359Z,99633.06
2024-04-15T18:18:01.336Z,99643.72
2024-04-15T18:20:28.454Z,99633.53
2024-04-15T18:22:55.558Z,99642.44
2024-04-15T18:25:22.447Z,99634.22
2024-04-15T18:27:54.883Z,99629.16
2024-04-15T18:30:21.798Z,99629.59
2024-04-15T18:32:49.445Z,99624.72
2024-04-15T18:35:16.418Z,99631.25
2024-04-15T18:37:44.752Z,99622.84
2024-04-15T18:40:11.993Z,99628.78
2024-04-15T18:42:39.619Z,99627.78
2024-04-15T18:45:08.245Z,99637.38
2024-04-15T18:47:35.728Z,99637.56
2024-04-15T18:50:02.577Z,99636.53
2024-04-15T18:52:29.674Z,99641.09
2024-04-15T18:54:57.419Z,99656.44
2024-04-15T18:57:24.507Z,99644.91
2024-04-15T18:59:51.846Z,99653.56
2024-04-15T19:02:18.703Z,99664.78
2024-04-15T19:04:45.772Z,99666.75
2024-04-15T19:07:12.811Z,99669.16
2024-04-15T19:09:40.236Z,99671.19
2024-04-15T19:12:07.784Z,99684.47
2024-04-15T19:14:46.000Z,99683.22
2024-04-15T19:17:21.985Z,99683.13
2024-04-15T19:19:50.247Z,99692.09
2024-04-15T19:22:17.647Z,99694.31
2024-04-15T19:24:44.527Z,99687.53
2024-04-15T19:27:11.431Z,99696.00
2024-04-15T19:29:38.229Z,99695.41
2024-04-15T19:32:05.832Z,99695.00
2024-04-15T19:34:32.757Z,99695.19
2024-04-15T19:36:59.820Z,99690.94
2024-04-15T19:39:26.968Z,99698.78
2024-04-15T19:41:54.616Z,99699.94
2024-04-15T19:44:21.406Z,99705.09
2024-04-15T19:46:48.337Z,99699.84
2024-04-15T19:49:15.308Z,99711.69
2024-04-15T19:51:42.084Z,99706.97
2024-04-15T19:54:08.781Z,99707.59
2024-04-15T19:56:36.565Z,99713.91
2024-04-15T19:59:04.201Z,99710.00
2024-04-15T20:01:30.948Z,99712.47
2024-04-15T20:03:58.108Z,99710.00
2024-04-15T20:06:24.980Z,99709.19
2024-04-15T20:08:51.946Z,99711.78
2024-04-15T20:11:18.873Z,99709.75
2024-04-15T20:13:45.676Z,99701.47
2024-04-15T20:16:12.528Z,99714.13
2024-04-15T20:19:02.518Z,99707.25
2024-04-15T20:21:32.015Z,99704.69
2024-04-15T20:23:59.590Z,99703.75
2024-04-15T20:26:26.940Z,99701.53
2024-04-15T20:28:54.097Z,99698.69
2024-04-15T20:31:21.080Z,99710.53
2024-04-15T20:33:47.892Z,99704.84
2024-04-15T20:36:14.900Z,99701.28
2024-04-15T20:38:44.661Z,99696.63
2024-04-15T20:41:11.736Z,99703.69
2024-04-15T20:43:39.267Z,99696.53
2024-04-15T20:46:10.483Z,99696.88
2024-04-15T20:48:37.642Z,99688.50
2024-04-15T20:51:04.725Z,99698.28
2024-04-15T20:53:31.634Z,99692.34
2024-04-15T20:55:58.511Z,99696.06
2024-04-15T20:58:25.644Z,99693.81
2024-04-15T21:00:52.549Z,99689.38
2024-04-15T21:03:19.618Z,99686.59
2024-04-15T21:05:46.601Z,99696.88
2024-04-15T21:08:13.488Z,99693.44
2024-04-15T21:10:41.156Z,99691.59
2024-04-15T21:13:08.927Z,99700.53
2024-04-15T21:15:36.385Z,99705.44
2024-04-15T21:18:04.010Z,99696.56
2024-04-15T21:20:31.479Z,99689.13
2024-04-15T21:22:58.455Z,99686.59
2024-04-15T21:25:25.516Z,99690.59
2024-04-15T21:27:56.683Z,99702.13
2024-04-15T21:30:23.888Z,99692.44
2024-04-15T21:32:53.141Z,99698.25
2024-04-15T21:35:22.620Z,99694.78
2024-04-15T21:37:49.581Z,99680.28
2024-04-15T21:40:16.556Z,99698.25
2024-04-15T21:42:43.560Z,99696.81
2024-04-15T21:45:10.703Z,99690.41
2024-04-15T21:47:37.800Z,99684.28
2024-04-15T21:50:04.865Z,99671.81
2024-04-15T21:52:32.333Z,99686.31
2024-04-15T21:54:59.373Z,99690.75
2024-04-15T21:57:26.250Z,99689.19
2024-04-15T21:59:53.663Z,99695.59
2024-04-15T22:02:20.953Z,99693.69
2024-04-15T22:04:58.865Z,99701.69
2024-04-15T22:07:28.827Z,99696.69
2024-04-15T22:09:56.095Z,99699.09
2024-04-15T22:12:23.205Z,99698.78
2024-04-15T22:14:50.331Z,99700.41
2024-04-15T22:17:17.351Z,99700.75
2024-04-15T22:19:44.165Z,99703.59
2024-04-15T22:22:11.111Z,99711.47
2024-04-15T22:24:37.914Z,99707.03
2024-04-15T22:27:04.643Z,99709.03
2024-04-15T22:29:31.534Z,99706.06
2024-04-15T22:31:58.230Z,99699.81
2024-04-15T22:34:25.237Z,99687.38
2024-04-15T22:36:55.509Z,99681.50
2024-04-15T22:39:24.012Z,99686.16
2024-04-15T22:41:50.754Z,99688.72
2024-04-15T22:44:17.497Z,99679.03
2024-04-15T22:46:44.199Z,99672.66
2024-04-15T22:49:11.348Z,99676.19
2024-04-15T22:51:38.144Z,99684.41
2024-04-15T22:54:05.159Z,99674.59
2024-04-15T22:56:32.048Z,99675.41
2024-04-15T22:58:59.131Z,99666.31
2024-04-15T23:01:26.007Z,99660.78
2024-04-15T23:03:52.952Z,99666.38
2024-04-15T23:06:20.011Z,99673.72
2024-04-15T23:08:46.915Z,99676.19
2024-04-15T23:11:13.786Z,99678.59
2024-04-15T23:13:40.949Z,99676.19
2024-04-15T23:16:07.846Z,99663.59
2024-04-15T23:18:35.121Z,99655.66
2024-04-15T23:21:01.803Z,99670.28
2024-04-15T23:23:28.657Z,99668.56
2024-04-15T23:25:55.474Z,99666.66
2024-04-15T23:28:22.276Z,99670.75
2024-04-15T23:30:59.496Z,99672.13
2024-04-15T23:33:26.727Z,99663.31
2024-04-15T23:35:54.316Z,99669.22
2024-04-15T23:38:22.112Z,99675.09
2024-04-15T23:40:49.608Z,99666.38
2024-04-15T23:43:16.480Z,99656.47
2024-04-15T23:45:56.698Z,99654.78
2024-04-15T23:48:23.906Z,99656.81
2024-04-15T23:50:50.643Z,99654.34
2024-04-15T23:53:17.613Z,99659.00
2024-04-15T23:55:44.657Z,99656.34
2024-04-15T23:58:11.981Z,99651.97
